sensor_id;sensor_type;location;lat;lon;timestamp;P1;durP1;ratioP1;P2;durP2;ratioP2
20036;SDS011;10179;42.640;23.312;2022-08-05T00:01:11;3.00;;;2.70;;
20036;SDS011;10179;42.640;23.312;2022-08-05T00:03:41;3.20;;;2.60;;
20036;SDS011;10179;42.640;23.312;2022-08-05T00:06:07;4.57;;;2.67;;
20036;SDS011;10179;42.640;23.312;2022-08-05T00:08:33;3.38;;;2.70;;
20036;SDS011;10179;42.640;23.312;2022-08-05T00:10:59;3.30;;;2.50;;
20036;SDS011;10179;42.640;23.312;2022-08-05T00:13:26;3.08;;;2.70;;
20036;SDS011;10179;42.640;23.312;2022-08-05T00:15:54;10.32;;;2.75;;
20036;SDS011;10179;42.640;23.312;2022-08-05T00:18:20;2.72;;;2.40;;
20036;SDS011;10179;42.640;23.312;2022-08-05T00:20:45;5.20;;;2.80;;
20036;SDS011;10179;42.640;23.312;2022-08-05T00:23:10;6.05;;;2.78;;
20036;SDS011;10179;42.640;23.312;2022-08-05T00:25:36;4.15;;;3.17;;
20036;SDS011;10179;42.640;23.312;2022-08-05T00:28:01;3.17;;;2.70;;
20036;SDS011;10179;42.640;23.312;2022-08-05T00:30:27;4.22;;;2.85;;
20036;SDS011;10179;42.640;23.312;2022-08-05T00:32:52;5.63;;;2.90;;
20036;SDS011;10179;42.640;23.312;2022-08-05T00:35:18;5.20;;;2.97;;
20036;SDS011;10179;42.640;23.312;2022-08-05T00:37:43;3.97;;;3.22;;
20036;SDS011;10179;42.640;23.312;2022-08-05T00:40:09;6.70;;;3.20;;
20036;SDS011;10179;42.640;23.312;2022-08-05T00:42:35;4.50;;;3.35;;
20036;SDS011;10179;42.640;23.312;2022-08-05T00:45:02;3.50;;;3.15;;
20036;SDS011;10179;42.640;23.312;2022-08-05T00:47:29;6.18;;;3.30;;
20036;SDS011;10179;42.640;23.312;2022-08-05T00:49:54;4.20;;;3.47;;
20036;SDS011;10179;42.640;23.312;2022-08-05T00:52:20;4.10;;;2.78;;
20036;SDS011;10179;42.640;23.312;2022-08-05T00:54:46;4.53;;;3.58;;
20036;SDS011;10179;42.640;23.312;2022-08-05T00:57:12;8.20;;;3.30;;
20036;SDS011;10179;42.640;23.312;2022-08-05T00:59:37;4.05;;;3.05;;
20036;SDS011;10179;42.640;23.312;2022-08-05T01:02:03;3.67;;;3.15;;
20036;SDS011;10179;42.640;23.312;2022-08-05T01:04:28;3.92;;;3.50;;
20036;SDS011;10179;42.640;23.312;2022-08-05T01:06:54;5.65;;;3.67;;
20036;SDS011;10179;42.640;23.312;2022-08-05T01:09:19;5.13;;;3.33;;
20036;SDS011;10179;42.640;23.312;2022-08-05T01:11:44;5.03;;;3.08;;
20036;SDS011;10179;42.640;23.312;2022-08-05T01:14:26;4.07;;;3.13;;
20036;SDS011;10179;42.640;23.312;2022-08-05T01:17:16;3.97;;;2.92;;
20036;SDS011;10179;42.640;23.312;2022-08-05T01:28:15;6.28;;;3.38;;
20036;SDS011;10179;42.640;23.312;2022-08-05T01:36:28;6.00;;;3.13;;
20036;SDS011;10179;42.640;23.312;2022-08-05T01:38:57;4.90;;;3.58;;
20036;SDS011;10179;42.640;23.312;2022-08-05T01:41:24;6.70;;;4.13;;
20036;SDS011;10179;42.640;23.312;2022-08-05T01:43:51;4.40;;;3.53;;
20036;SDS011;10179;42.640;23.312;2022-08-05T01:46:19;6.43;;;3.72;;
20036;SDS011;10179;42.640;23.312;2022-08-05T01:48:46;3.83;;;3.47;;
20036;SDS011;10179;42.640;23.312;2022-08-05T01:51:13;4.90;;;3.50;;
20036;SDS011;10179;42.640;23.312;2022-08-05T01:53:39;6.60;;;3.30;;
20036;SDS011;10179;42.640;23.312;2022-08-05T01:56:05;8.32;;;4.10;;
20036;SDS011;10179;42.640;23.312;2022-08-05T01:58:33;5.15;;;3.80;;
20036;SDS011;10179;42.640;23.312;2022-08-05T02:01:00;6.22;;;4.07;;
20036;SDS011;10179;42.640;23.312;2022-08-05T02:03:31;6.90;;;3.95;;
20036;SDS011;10179;42.640;23.312;2022-08-05T02:06:00;5.05;;;3.70;;
20036;SDS011;10179;42.640;23.312;2022-08-05T02:08:29;4.78;;;3.50;;
20036;SDS011;10179;42.640;23.312;2022-08-05T02:10:58;5.38;;;3.90;;
20036;SDS011;10179;42.640;23.312;2022-08-05T02:16:02;4.57;;;3.50;;
20036;SDS011;10179;42.640;23.312;2022-08-05T02:18:34;4.93;;;3.50;;
20036;SDS011;10179;42.640;23.312;2022-08-05T02:21:06;4.80;;;3.60;;
20036;SDS011;10179;42.640;23.312;2022-08-05T02:23:37;4.90;;;3.83;;
20036;SDS011;10179;42.640;23.312;2022-08-05T02:26:06;5.72;;;4.28;;
20036;SDS011;10179;42.640;23.312;2022-08-05T02:28:39;6.03;;;4.47;;
20036;SDS011;10179;42.640;23.312;2022-08-05T02:33:34;6.30;;;4.07;;
20036;SDS011;10179;42.640;23.312;2022-08-05T02:36:04;6.57;;;4.50;;
20036;SDS011;10179;42.640;23.312;2022-08-05T02:38:32;6.03;;;4.07;;
20036;SDS011;10179;42.640;23.312;2022-08-05T02:40:59;11.40;;;4.15;;
20036;SDS011;10179;42.640;23.312;2022-08-05T02:43:27;5.78;;;3.80;;
20036;SDS011;10179;42.640;23.312;2022-08-05T02:45:54;6.70;;;3.58;;
20036;SDS011;10179;42.640;23.312;2022-08-05T02:48:21;4.20;;;3.50;;
20036;SDS011;10179;42.640;23.312;2022-08-05T02:50:49;6.15;;;3.60;;
20036;SDS011;10179;42.640;23.312;2022-08-05T02:53:16;4.15;;;3.75;;
20036;SDS011;10179;42.640;23.312;2022-08-05T02:55:45;4.72;;;3.50;;
20036;SDS011;10179;42.640;23.312;2022-08-05T02:58:16;6.95;;;3.90;;
20036;SDS011;10179;42.640;23.312;2022-08-05T03:00:43;5.10;;;3.60;;
20036;SDS011;10179;42.640;23.312;2022-08-05T03:03:11;3.67;;;3.20;;
20036;SDS011;10179;42.640;23.312;2022-08-05T03:05:40;4.97;;;3.63;;
20036;SDS011;10179;42.640;23.312;2022-08-05T03:08:08;3.97;;;3.33;;
20036;SDS011;10179;42.640;23.312;2022-08-05T03:10:34;5.82;;;3.28;;
20036;SDS011;10179;42.640;23.312;2022-08-05T03:13:00;5.00;;;3.50;;
20036;SDS011;10179;42.640;23.312;2022-08-05T03:15:25;4.40;;;3.33;;
20036;SDS011;10179;42.640;23.312;2022-08-05T03:17:51;4.85;;;4.00;;
20036;SDS011;10179;42.640;23.312;2022-08-05T03:20:18;5.60;;;4.50;;
20036;SDS011;10179;42.640;23.312;2022-08-05T03:22:43;4.55;;;3.78;;
20036;SDS011;10179;42.640;23.312;2022-08-05T03:25:09;6.90;;;4.22;;
20036;SDS011;10179;42.640;23.312;2022-08-05T03:27:35;3.95;;;3.53;;
20036;SDS011;10179;42.640;23.312;2022-08-05T03:30:01;5.50;;;4.30;;
20036;SDS011;10179;42.640;23.312;2022-08-05T03:32:27;7.38;;;4.68;;
20036;SDS011;10179;42.640;23.312;2022-08-05T03:34:52;6.53;;;3.95;;
20036;SDS011;10179;42.640;23.312;2022-08-05T03:37:18;4.70;;;3.50;;
20036;SDS011;10179;42.640;23.312;2022-08-05T03:39:53;4.13;;;3.45;;
20036;SDS011;10179;42.640;23.312;2022-08-05T03:42:20;8.00;;;3.53;;
20036;SDS011;10179;42.640;23.312;2022-08-05T03:44:46;6.72;;;3.83;;
20036;SDS011;10179;42.640;23.312;2022-08-05T03:47:11;5.45;;;4.18;;
20036;SDS011;10179;42.640;23.312;2022-08-05T03:49:37;4.75;;;3.88;;
20036;SDS011;10179;42.640;23.312;2022-08-05T03:52:02;5.68;;;3.90;;
20036;SDS011;10179;42.640;23.312;2022-08-05T03:54:42;5.22;;;3.50;;
20036;SDS011;10179;42.640;23.312;2022-08-05T03:57:14;5.82;;;4.20;;
20036;SDS011;10179;42.640;23.312;2022-08-05T03:59:44;5.53;;;3.97;;
20036;SDS011;10179;42.640;23.312;2022-08-05T04:02:13;7.35;;;4.70;;
20036;SDS011;10179;42.640;23.312;2022-08-05T04:04:40;7.35;;;5.10;;
20036;SDS011;10179;42.640;23.312;2022-08-05T04:07:07;11.25;;;4.65;;
20036;SDS011;10179;42.640;23.312;2022-08-05T04:09:34;7.15;;;4.97;;
20036;SDS011;10179;42.640;23.312;2022-08-05T04:12:00;8.65;;;4.97;;
20036;SDS011;10179;42.640;23.312;2022-08-05T04:14:26;8.73;;;4.82;;
20036;SDS011;10179;42.640;23.312;2022-08-05T04:16:52;9.13;;;5.43;;
20036;SDS011;10179;42.640;23.312;2022-08-05T04:19:18;9.82;;;6.18;;
20036;SDS011;10179;42.640;23.312;2022-08-05T04:21:44;7.07;;;5.40;;
20036;SDS011;10179;42.640;23.312;2022-08-05T04:24:09;11.07;;;6.10;;
20036;SDS011;10179;42.640;23.312;2022-08-05T04:26:35;6.85;;;5.82;;
20036;SDS011;10179;42.640;23.312;2022-08-05T04:29:00;10.27;;;5.90;;
20036;SDS011;10179;42.640;23.312;2022-08-05T04:31:25;8.65;;;6.13;;
20036;SDS011;10179;42.640;23.312;2022-08-05T04:33:51;11.13;;;5.60;;
20036;SDS011;10179;42.640;23.312;2022-08-05T04:36:16;8.35;;;5.25;;
20036;SDS011;10179;42.640;23.312;2022-08-05T04:38:42;8.30;;;6.47;;
20036;SDS011;10179;42.640;23.312;2022-08-05T04:41:08;12.40;;;6.65;;
20036;SDS011;10179;42.640;23.312;2022-08-05T04:43:34;10.93;;;6.60;;
20036;SDS011;10179;42.640;23.312;2022-08-05T04:46:00;10.93;;;6.43;;
20036;SDS011;10179;42.640;23.312;2022-08-05T04:48:27;13.95;;;6.38;;
20036;SDS011;10179;42.640;23.312;2022-08-05T04:50:52;9.10;;;6.43;;
20036;SDS011;10179;42.640;23.312;2022-08-05T04:53:18;9.05;;;6.30;;
20036;SDS011;10179;42.640;23.312;2022-08-05T04:55:44;9.30;;;6.60;;
20036;SDS011;10179;42.640;23.312;2022-08-05T04:58:11;8.07;;;6.35;;
20036;SDS011;10179;42.640;23.312;2022-08-05T05:00:37;12.43;;;7.30;;
20036;SDS011;10179;42.640;23.312;2022-08-05T05:03:04;10.27;;;5.70;;
20036;SDS011;10179;42.640;23.312;2022-08-05T05:05:30;10.40;;;6.55;;
20036;SDS011;10179;42.640;23.312;2022-08-05T05:08:00;8.70;;;6.07;;
20036;SDS011;10179;42.640;23.312;2022-08-05T05:10:28;15.18;;;6.53;;
20036;SDS011;10179;42.640;23.312;2022-08-05T05:12:54;10.35;;;6.63;;
20036;SDS011;10179;42.640;23.312;2022-08-05T05:15:20;12.57;;;6.35;;
20036;SDS011;10179;42.640;23.312;2022-08-05T05:17:45;13.48;;;7.00;;
20036;SDS011;10179;42.640;23.312;2022-08-05T05:20:11;10.57;;;6.20;;
20036;SDS011;10179;42.640;23.312;2022-08-05T05:22:38;9.75;;;6.85;;
20036;SDS011;10179;42.640;23.312;2022-08-05T05:25:04;10.68;;;7.03;;
20036;SDS011;10179;42.640;23.312;2022-08-05T05:27:30;11.07;;;7.13;;
20036;SDS011;10179;42.640;23.312;2022-08-05T05:29:57;10.52;;;6.65;;
20036;SDS011;10179;42.640;23.312;2022-08-05T05:32:23;12.80;;;6.82;;
20036;SDS011;10179;42.640;23.312;2022-08-05T05:34:48;12.80;;;7.28;;
20036;SDS011;10179;42.640;23.312;2022-08-05T05:37:14;9.63;;;6.45;;
20036;SDS011;10179;42.640;23.312;2022-08-05T05:39:39;11.70;;;6.68;;
20036;SDS011;10179;42.640;23.312;2022-08-05T05:42:05;10.98;;;7.03;;
20036;SDS011;10179;42.640;23.312;2022-08-05T05:44:30;9.07;;;7.18;;
20036;SDS011;10179;42.640;23.312;2022-08-05T05:46:56;9.73;;;6.97;;
20036;SDS011;10179;42.640;23.312;2022-08-05T05:49:22;11.50;;;7.97;;
20036;SDS011;10179;42.640;23.312;2022-08-05T05:51:47;12.65;;;6.25;;
20036;SDS011;10179;42.640;23.312;2022-08-05T05:54:13;11.05;;;6.10;;
20036;SDS011;10179;42.640;23.312;2022-08-05T05:56:39;7.78;;;5.55;;
20036;SDS011;10179;42.640;23.312;2022-08-05T05:59:04;5.63;;;4.85;;
20036;SDS011;10179;42.640;23.312;2022-08-05T06:01:30;6.32;;;5.15;;
20036;SDS011;10179;42.640;23.312;2022-08-05T06:03:56;8.48;;;5.57;;
20036;SDS011;10179;42.640;23.312;2022-08-05T06:06:22;9.82;;;6.60;;
20036;SDS011;10179;42.640;23.312;2022-08-05T06:08:47;14.18;;;7.20;;
20036;SDS011;10179;42.640;23.312;2022-08-05T06:11:13;16.90;;;7.25;;
20036;SDS011;10179;42.640;23.312;2022-08-05T06:13:38;8.15;;;5.57;;
20036;SDS011;10179;42.640;23.312;2022-08-05T06:16:03;5.88;;;4.78;;
20036;SDS011;10179;42.640;23.312;2022-08-05T06:18:29;9.30;;;5.40;;
20036;SDS011;10179;42.640;23.312;2022-08-05T06:20:54;6.68;;;5.22;;
20036;SDS011;10179;42.640;23.312;2022-08-05T06:23:20;7.93;;;5.88;;
20036;SDS011;10179;42.640;23.312;2022-08-05T06:25:45;10.93;;;6.00;;
20036;SDS011;10179;42.640;23.312;2022-08-05T06:28:10;9.82;;;5.70;;
20036;SDS011;10179;42.640;23.312;2022-08-05T06:30:36;11.73;;;6.07;;
20036;SDS011;10179;42.640;23.312;2022-08-05T06:33:01;9.35;;;6.72;;
20036;SDS011;10179;42.640;23.312;2022-08-05T06:35:27;9.88;;;6.60;;
20036;SDS011;10179;42.640;23.312;2022-08-05T06:37:52;14.35;;;6.22;;
20036;SDS011;10179;42.640;23.312;2022-08-05T06:40:17;10.68;;;6.10;;
20036;SDS011;10179;42.640;23.312;2022-08-05T06:42:43;9.68;;;6.22;;
20036;SDS011;10179;42.640;23.312;2022-08-05T06:45:08;10.70;;;5.93;;
20036;SDS011;10179;42.640;23.312;2022-08-05T06:47:34;11.82;;;6.22;;
20036;SDS011;10179;42.640;23.312;2022-08-05T06:49:59;10.13;;;6.38;;
20036;SDS011;10179;42.640;23.312;2022-08-05T06:52:25;10.02;;;6.25;;
20036;SDS011;10179;42.640;23.312;2022-08-05T06:54:50;11.73;;;5.75;;
20036;SDS011;10179;42.640;23.312;2022-08-05T06:57:16;12.50;;;6.53;;
20036;SDS011;10179;42.640;23.312;2022-08-05T06:59:42;6.75;;;5.45;;
20036;SDS011;10179;42.640;23.312;2022-08-05T07:02:08;11.40;;;5.78;;
20036;SDS011;10179;42.640;23.312;2022-08-05T07:04:33;17.98;;;6.35;;
20036;SDS011;10179;42.640;23.312;2022-08-05T07:06:59;9.82;;;5.53;;
20036;SDS011;10179;42.640;23.312;2022-08-05T07:09:24;9.75;;;5.50;;
20036;SDS011;10179;42.640;23.312;2022-08-05T07:11:49;8.18;;;5.05;;
20036;SDS011;10179;42.640;23.312;2022-08-05T07:14:15;12.30;;;5.43;;
20036;SDS011;10179;42.640;23.312;2022-08-05T07:16:59;9.20;;;5.60;;
20036;SDS011;10179;42.640;23.312;2022-08-05T07:19:25;14.07;;;5.93;;
20036;SDS011;10179;42.640;23.312;2022-08-05T07:21:52;13.27;;;6.05;;
20036;SDS011;10179;42.640;23.312;2022-08-05T07:24:19;12.00;;;5.53;;
20036;SDS011;10179;42.640;23.312;2022-08-05T07:26:45;9.38;;;5.25;;
20036;SDS011;10179;42.640;23.312;2022-08-05T07:29:12;10.55;;;5.53;;
20036;SDS011;10179;42.640;23.312;2022-08-05T07:31:38;8.27;;;5.20;;
20036;SDS011;10179;42.640;23.312;2022-08-05T07:34:04;13.77;;;5.68;;
20036;SDS011;10179;42.640;23.312;2022-08-05T07:36:29;8.40;;;5.18;;
20036;SDS011;10179;42.640;23.312;2022-08-05T07:38:57;9.52;;;5.65;;
20036;SDS011;10179;42.640;23.312;2022-08-05T07:41:23;10.38;;;5.40;;
20036;SDS011;10179;42.640;23.312;2022-08-05T07:43:49;12.10;;;4.93;;
20036;SDS011;10179;42.640;23.312;2022-08-05T07:46:15;9.50;;;5.15;;
20036;SDS011;10179;42.640;23.312;2022-08-05T07:48:40;7.35;;;4.90;;
20036;SDS011;10179;42.640;23.312;2022-08-05T07:51:06;10.10;;;5.10;;
20036;SDS011;10179;42.640;23.312;2022-08-05T07:53:31;7.18;;;4.93;;
20036;SDS011;10179;42.640;23.312;2022-08-05T07:55:57;7.32;;;5.20;;
20036;SDS011;10179;42.640;23.312;2022-08-05T07:58:22;11.02;;;5.38;;
20036;SDS011;10179;42.640;23.312;2022-08-05T08:00:48;8.07;;;5.15;;
20036;SDS011;10179;42.640;23.312;2022-08-05T08:03:14;15.55;;;5.18;;
20036;SDS011;10179;42.640;23.312;2022-08-05T08:05:40;6.57;;;5.10;;
20036;SDS011;10179;42.640;23.312;2022-08-05T08:08:08;8.80;;;4.55;;
20036;SDS011;10179;42.640;23.312;2022-08-05T08:10:34;5.65;;;4.22;;
20036;SDS011;10179;42.640;23.312;2022-08-05T08:12:59;7.72;;;4.60;;
20036;SDS011;10179;42.640;23.312;2022-08-05T08:15:25;7.00;;;4.68;;
20036;SDS011;10179;42.640;23.312;2022-08-05T08:17:50;14.25;;;5.10;;
20036;SDS011;10179;42.640;23.312;2022-08-05T08:20:16;10.25;;;4.38;;
20036;SDS011;10179;42.640;23.312;2022-08-05T08:22:41;6.80;;;4.10;;
20036;SDS011;10179;42.640;23.312;2022-08-05T08:25:07;6.90;;;4.10;;
20036;SDS011;10179;42.640;23.312;2022-08-05T08:27:33;6.65;;;3.80;;
20036;SDS011;10179;42.640;23.312;2022-08-05T08:29:58;5.22;;;3.70;;
20036;SDS011;10179;42.640;23.312;2022-08-05T08:32:23;11.18;;;4.20;;
20036;SDS011;10179;42.640;23.312;2022-08-05T08:34:49;9.90;;;3.58;;
20036;SDS011;10179;42.640;23.312;2022-08-05T08:37:15;5.20;;;3.05;;
20036;SDS011;10179;42.640;23.312;2022-08-05T08:39:43;5.88;;;2.88;;
20036;SDS011;10179;42.640;23.312;2022-08-05T08:42:08;6.40;;;3.50;;
20036;SDS011;10179;42.640;23.312;2022-08-05T08:44:35;5.70;;;3.05;;
20036;SDS011;10179;42.640;23.312;2022-08-05T08:47:02;6.32;;;3.35;;
20036;SDS011;10179;42.640;23.312;2022-08-05T08:49:29;7.47;;;3.05;;
20036;SDS011;10179;42.640;23.312;2022-08-05T08:52:07;4.07;;;3.00;;
20036;SDS011;10179;42.640;23.312;2022-08-05T08:54:37;4.70;;;2.90;;
20036;SDS011;10179;42.640;23.312;2022-08-05T08:57:03;14.23;;;3.00;;
20036;SDS011;10179;42.640;23.312;2022-08-05T08:59:32;4.05;;;2.88;;
20036;SDS011;10179;42.640;23.312;2022-08-05T09:01:58;4.40;;;2.30;;
20036;SDS011;10179;42.640;23.312;2022-08-05T09:04:26;3.70;;;2.35;;
20036;SDS011;10179;42.640;23.312;2022-08-05T09:06:51;2.55;;;2.25;;
20036;SDS011;10179;42.640;23.312;2022-08-05T09:09:17;4.55;;;2.55;;
20036;SDS011;10179;42.640;23.312;2022-08-05T09:11:42;3.25;;;2.22;;
20036;SDS011;10179;42.640;23.312;2022-08-05T09:14:08;4.82;;;2.42;;
20036;SDS011;10179;42.640;23.312;2022-08-05T09:16:37;6.28;;;2.05;;
20036;SDS011;10179;42.640;23.312;2022-08-05T09:19:03;6.40;;;2.15;;
20036;SDS011;10179;42.640;23.312;2022-08-05T09:21:29;3.55;;;1.83;;
20036;SDS011;10179;42.640;23.312;2022-08-05T09:24:04;3.60;;;2.83;;
20036;SDS011;10179;42.640;23.312;2022-08-05T09:26:34;3.45;;;2.50;;
20036;SDS011;10179;42.640;23.312;2022-08-05T09:29:04;6.25;;;2.60;;
20036;SDS011;10179;42.640;23.312;2022-08-05T09:31:31;4.88;;;3.65;;
20036;SDS011;10179;42.640;23.312;2022-08-05T09:33:58;4.18;;;2.80;;
20036;SDS011;10179;42.640;23.312;2022-08-05T09:36:44;4.72;;;2.70;;
20036;SDS011;10179;42.640;23.312;2022-08-05T09:39:17;4.57;;;2.47;;
20036;SDS011;10179;42.640;23.312;2022-08-05T09:42:03;2.78;;;2.38;;
20036;SDS011;10179;42.640;23.312;2022-08-05T09:44:47;4.07;;;2.40;;
20036;SDS011;10179;42.640;23.312;2022-08-05T09:49:41;4.95;;;2.47;;
20036;SDS011;10179;42.640;23.312;2022-08-05T09:52:22;6.00;;;2.50;;
20036;SDS011;10179;42.640;23.312;2022-08-05T09:54:59;6.05;;;3.00;;
20036;SDS011;10179;42.640;23.312;2022-08-05T10:00:09;3.83;;;2.20;;
20036;SDS011;10179;42.640;23.312;2022-08-05T10:02:37;3.75;;;2.42;;
20036;SDS011;10179;42.640;23.312;2022-08-05T10:05:04;5.65;;;2.20;;
20036;SDS011;10179;42.640;23.312;2022-08-05T10:07:42;5.38;;;2.92;;
20036;SDS011;10179;42.640;23.312;2022-08-05T10:10:08;3.70;;;2.33;;
20036;SDS011;10179;42.640;23.312;2022-08-05T10:12:41;5.35;;;2.47;;
20036;SDS011;10179;42.640;23.312;2022-08-05T10:15:14;3.38;;;2.70;;
20036;SDS011;10179;42.640;23.312;2022-08-05T10:20:32;3.00;;;2.35;;
20036;SDS011;10179;42.640;23.312;2022-08-05T10:22:59;8.00;;;2.60;;
20036;SDS011;10179;42.640;23.312;2022-08-05T10:25:25;4.57;;;2.28;;
20036;SDS011;10179;42.640;23.312;2022-08-05T10:27:51;2.92;;;2.63;;
20036;SDS011;10179;42.640;23.312;2022-08-05T10:30:18;4.95;;;2.58;;
20036;SDS011;10179;42.640;23.312;2022-08-05T10:32:44;3.85;;;2.50;;
20036;SDS011;10179;42.640;23.312;2022-08-05T10:35:11;9.20;;;2.65;;
20036;SDS011;10179;42.640;23.312;2022-08-05T10:37:36;5.68;;;2.60;;
20036;SDS011;10179;42.640;23.312;2022-08-05T10:40:03;5.65;;;3.22;;
20036;SDS011;10179;42.640;23.312;2022-08-05T10:42:31;7.50;;;3.25;;
20036;SDS011;10179;42.640;23.312;2022-08-05T10:45:01;7.50;;;3.10;;
20036;SDS011;10179;42.640;23.312;2022-08-05T10:47:31;3.55;;;3.00;;
20036;SDS011;10179;42.640;23.312;2022-08-05T10:52:41;5.80;;;3.22;;
20036;SDS011;10179;42.640;23.312;2022-08-05T10:55:11;5.07;;;2.95;;
20036;SDS011;10179;42.640;23.312;2022-08-05T10:57:38;4.90;;;2.75;;
20036;SDS011;10179;42.640;23.312;2022-08-05T11:02:36;3.70;;;2.70;;
20036;SDS011;10179;42.640;23.312;2022-08-05T11:05:05;4.45;;;2.95;;
20036;SDS011;10179;42.640;23.312;2022-08-05T11:07:33;5.78;;;2.90;;
20036;SDS011;10179;42.640;23.312;2022-08-05T11:10:00;4.47;;;2.83;;
20036;SDS011;10179;42.640;23.312;2022-08-05T11:15:15;3.55;;;2.78;;
20036;SDS011;10179;42.640;23.312;2022-08-05T11:17:44;6.28;;;2.92;;
20036;SDS011;10179;42.640;23.312;2022-08-05T11:20:31;6.03;;;2.60;;
20036;SDS011;10179;42.640;23.312;2022-08-05T11:26:05;3.75;;;2.80;;
20036;SDS011;10179;42.640;23.312;2022-08-05T11:36:13;6.45;;;4.63;;
20036;SDS011;10179;42.640;23.312;2022-08-05T11:41:14;11.07;;;3.10;;
20036;SDS011;10179;42.640;23.312;2022-08-05T11:46:30;11.77;;;2.78;;
20036;SDS011;10179;42.640;23.312;2022-08-05T11:49:06;3.00;;;2.70;;
20036;SDS011;10179;42.640;23.312;2022-08-05T11:51:32;4.22;;;3.00;;
20036;SDS011;10179;42.640;23.312;2022-08-05T11:53:59;5.88;;;2.90;;
20036;SDS011;10179;42.640;23.312;2022-08-05T11:56:41;3.22;;;2.83;;
20036;SDS011;10179;42.640;23.312;2022-08-05T12:01:36;4.55;;;3.10;;
20036;SDS011;10179;42.640;23.312;2022-08-05T12:04:01;5.65;;;2.90;;
20036;SDS011;10179;42.640;23.312;2022-08-05T12:06:27;3.67;;;2.90;;
20036;SDS011;10179;42.640;23.312;2022-08-05T12:08:54;4.13;;;3.00;;
20036;SDS011;10179;42.640;23.312;2022-08-05T12:11:25;4.57;;;3.50;;
20036;SDS011;10179;42.640;23.312;2022-08-05T12:13:53;6.10;;;3.80;;
20036;SDS011;10179;42.640;23.312;2022-08-05T12:16:19;4.10;;;2.75;;
20036;SDS011;10179;42.640;23.312;2022-08-05T12:18:45;3.40;;;3.03;;
20036;SDS011;10179;42.640;23.312;2022-08-05T12:21:18;3.47;;;3.10;;
20036;SDS011;10179;42.640;23.312;2022-08-05T12:26:50;3.30;;;2.78;;
20036;SDS011;10179;42.640;23.312;2022-08-05T12:29:20;3.90;;;3.10;;
20036;SDS011;10179;42.640;23.312;2022-08-05T12:31:50;3.72;;;3.33;;
20036;SDS011;10179;42.640;23.312;2022-08-05T12:34:30;4.40;;;2.78;;
20036;SDS011;10179;42.640;23.312;2022-08-05T12:36:58;4.18;;;2.90;;
20036;SDS011;10179;42.640;23.312;2022-08-05T12:39:30;6.50;;;3.28;;
20036;SDS011;10179;42.640;23.312;2022-08-05T12:41:57;3.17;;;2.88;;
20036;SDS011;10179;42.640;23.312;2022-08-05T12:44:26;3.50;;;2.92;;
20036;SDS011;10179;42.640;23.312;2022-08-05T12:46:52;5.18;;;2.90;;
20036;SDS011;10179;42.640;23.312;2022-08-05T12:49:20;4.65;;;2.88;;
20036;SDS011;10179;42.640;23.312;2022-08-05T12:56:51;9.10;;;4.22;;
20036;SDS011;10179;42.640;23.312;2022-08-05T12:59:22;9.43;;;4.40;;
20036;SDS011;10179;42.640;23.312;2022-08-05T13:04:20;8.18;;;5.40;;
20036;SDS011;10179;42.640;23.312;2022-08-05T13:06:46;15.70;;;5.90;;
20036;SDS011;10179;42.640;23.312;2022-08-05T13:09:12;5.95;;;4.25;;
20036;SDS011;10179;42.640;23.312;2022-08-05T13:11:39;6.47;;;4.07;;
20036;SDS011;10179;42.640;23.312;2022-08-05T13:16:59;5.22;;;3.70;;
20036;SDS011;10179;42.640;23.312;2022-08-05T13:19:25;4.30;;;3.20;;
20036;SDS011;10179;42.640;23.312;2022-08-05T13:21:52;4.28;;;3.50;;
20036;SDS011;10179;42.640;23.312;2022-08-05T13:24:19;6.15;;;3.30;;
20036;SDS011;10179;42.640;23.312;2022-08-05T13:26:46;4.82;;;2.97;;
20036;SDS011;10179;42.640;23.312;2022-08-05T13:29:12;5.45;;;3.40;;
20036;SDS011;10179;42.640;23.312;2022-08-05T13:31:38;5.53;;;3.40;;
20036;SDS011;10179;42.640;23.312;2022-08-05T13:34:03;6.97;;;3.28;;
20036;SDS011;10179;42.640;23.312;2022-08-05T13:36:29;7.22;;;3.40;;
20036;SDS011;10179;42.640;23.312;2022-08-05T13:38:54;4.63;;;3.47;;
20036;SDS011;10179;42.640;23.312;2022-08-05T13:41:20;6.30;;;3.72;;
20036;SDS011;10179;42.640;23.312;2022-08-05T13:43:45;6.85;;;4.00;;
20036;SDS011;10179;42.640;23.312;2022-08-05T13:46:11;6.05;;;3.25;;
20036;SDS011;10179;42.640;23.312;2022-08-05T13:48:37;4.65;;;3.70;;
20036;SDS011;10179;42.640;23.312;2022-08-05T13:51:09;4.40;;;3.20;;
20036;SDS011;10179;42.640;23.312;2022-08-05T13:53:37;7.78;;;3.38;;
20036;SDS011;10179;42.640;23.312;2022-08-05T13:56:03;4.45;;;3.15;;
20036;SDS011;10179;42.640;23.312;2022-08-05T13:58:29;4.47;;;3.33;;
20036;SDS011;10179;42.640;23.312;2022-08-05T14:00:54;3.88;;;3.30;;
20036;SDS011;10179;42.640;23.312;2022-08-05T14:03:20;5.68;;;4.05;;
20036;SDS011;10179;42.640;23.312;2022-08-05T14:05:46;3.17;;;2.78;;
20036;SDS011;10179;42.640;23.312;2022-08-05T14:08:11;3.47;;;3.17;;
20036;SDS011;10179;42.640;23.312;2022-08-05T14:10:37;3.22;;;2.90;;
20036;SDS011;10179;42.640;23.312;2022-08-05T14:13:03;3.60;;;2.88;;
20036;SDS011;10179;42.640;23.312;2022-08-05T14:15:32;4.57;;;3.20;;
20036;SDS011;10179;42.640;23.312;2022-08-05T14:17:57;4.07;;;3.40;;
20036;SDS011;10179;42.640;23.312;2022-08-05T14:20:23;8.63;;;3.95;;
20036;SDS011;10179;42.640;23.312;2022-08-05T14:22:48;3.83;;;3.30;;
20036;SDS011;10179;42.640;23.312;2022-08-05T14:25:14;4.65;;;3.15;;
20036;SDS011;10179;42.640;23.312;2022-08-05T14:27:41;3.95;;;3.30;;
20036;SDS011;10179;42.640;23.312;2022-08-05T14:30:06;7.88;;;2.70;;
20036;SDS011;10179;42.640;23.312;2022-08-05T14:32:32;3.50;;;2.60;;
20036;SDS011;10179;42.640;23.312;2022-08-05T14:34:58;3.30;;;2.92;;
20036;SDS011;10179;42.640;23.312;2022-08-05T14:37:23;4.85;;;2.78;;
20036;SDS011;10179;42.640;23.312;2022-08-05T14:39:49;4.97;;;2.90;;
20036;SDS011;10179;42.640;23.312;2022-08-05T14:42:15;7.90;;;2.92;;
20036;SDS011;10179;42.640;23.312;2022-08-05T14:44:40;4.78;;;3.10;;
20036;SDS011;10179;42.640;23.312;2022-08-05T14:47:06;4.65;;;3.10;;
20036;SDS011;10179;42.640;23.312;2022-08-05T14:49:31;7.80;;;2.60;;
20036;SDS011;10179;42.640;23.312;2022-08-05T14:51:56;3.10;;;2.75;;
20036;SDS011;10179;42.640;23.312;2022-08-05T14:54:22;5.97;;;2.78;;
20036;SDS011;10179;42.640;23.312;2022-08-05T14:56:47;5.05;;;3.00;;
20036;SDS011;10179;42.640;23.312;2022-08-05T14:59:13;5.25;;;3.10;;
20036;SDS011;10179;42.640;23.312;2022-08-05T15:01:39;2.78;;;2.55;;
20036;SDS011;10179;42.640;23.312;2022-08-05T15:04:05;4.50;;;2.70;;
20036;SDS011;10179;42.640;23.312;2022-08-05T15:06:34;3.65;;;2.47;;
20036;SDS011;10179;42.640;23.312;2022-08-05T15:08:59;5.82;;;2.45;;
20036;SDS011;10179;42.640;23.312;2022-08-05T15:11:25;2.95;;;2.53;;
20036;SDS011;10179;42.640;23.312;2022-08-05T15:13:50;3.00;;;2.70;;
20036;SDS011;10179;42.640;23.312;2022-08-05T15:16:16;3.38;;;2.50;;
20036;SDS011;10179;42.640;23.312;2022-08-05T15:18:41;3.53;;;2.70;;
20036;SDS011;10179;42.640;23.312;2022-08-05T15:21:07;5.32;;;2.70;;
20036;SDS011;10179;42.640;23.312;2022-08-05T15:23:32;2.47;;;2.28;;
20036;SDS011;10179;42.640;23.312;2022-08-05T15:25:58;2.78;;;2.40;;
20036;SDS011;10179;42.640;23.312;2022-08-05T15:28:23;3.80;;;2.58;;
20036;SDS011;10179;42.640;23.312;2022-08-05T15:30:48;2.80;;;2.45;;
20036;SDS011;10179;42.640;23.312;2022-08-05T15:33:14;2.78;;;2.30;;
20036;SDS011;10179;42.640;23.312;2022-08-05T15:35:39;2.83;;;2.40;;
20036;SDS011;10179;42.640;23.312;2022-08-05T15:38:05;3.92;;;2.20;;
20036;SDS011;10179;42.640;23.312;2022-08-05T15:40:30;3.67;;;1.98;;